sensor_id;sensor_type;location;lat;lon;timestamp;pressure;altitude;pressure_sealevel;temperature;humidity
76378;BME280;65200;49.500;8.654;2024-03-02T00:01:42;99251.19;;;12.99;50.06
76378;BME280;65200;49.500;8.654;2024-03-02T00:04:10;99254.88;;;12.75;51.82
76378;BME280;65200;49.500;8.654;2024-03-02T00:06:38;99242.59;;;13.09;51.50
76378;BME280;65200;49.500;8.654;2024-03-02T00:09:09;99246.63;;;13.00;48.76
76378;BME280;65200;49.500;8.654;2024-03-02T00:11:37;99256.16;;;13.25;49.95
76378;BME280;65200;49.500;8.654;2024-03-02T00:14:05;99242.47;;;13.04;50.42
76378;BME280;65200;49.500;8.654;2024-03-02T00:16:34;99247.06;;;12.85;50.27
76378;BME280;65200;49.500;8.654;2024-03-02T00:19:02;99235.50;;;12.73;50.10
76378;BME280;65200;49.500;8.654;2024-03-02T00:21:30;99236.72;;;12.48;51.23
76378;BME280;65200;49.500;8.654;2024-03-02T00:23:58;99235.19;;;12.40;50.94
76378;BME280;65200;49.500;8.654;2024-03-02T00:26:29;99235.81;;;12.54;50.27
76378;BME280;65200;49.500;8.654;2024-03-02T00:28:56;99235.72;;;12.60;50.65
76378;BME280;65200;49.500;8.654;2024-03-02T00:31:26;99232.22;;;12.71;48.13
76378;BME280;65200;49.500;8.654;2024-03-02T00:33:55;99237.00;;;12.69;49.68
76378;BME280;65200;49.500;8.654;2024-03-02T00:36:25;99245.81;;;12.88;48.49
76378;BME280;65200;49.500;8.654;2024-03-02T00:38:54;99230.41;;;13.06;48.56
76378;BME280;65200;49.500;8.654;2024-03-02T00:41:25;99224.50;;;12.63;46.15
76378;BME280;65200;49.500;8.654;2024-03-02T00:43:58;99232.28;;;13.06;46.05
76378;BME280;65200;49.500;8.654;2024-03-02T00:46:28;99237.66;;;13.17;46.86
76378;BME280;65200;49.500;8.654;2024-03-02T00:48:59;99239.31;;;13.18;46.23
76378;BME280;65200;49.500;8.654;2024-03-02T00:51:29;99246.03;;;12.98;47.67
76378;BME280;65200;49.500;8.654;2024-03-02T00:53:58;99240.16;;;12.66;46.94
76378;BME280;65200;49.500;8.654;2024-03-02T00:56:26;99239.84;;;12.86;46.47
76378;BME280;65200;49.500;8.654;2024-03-02T00:58:54;99237.81;;;12.70;48.75
76378;BME280;65200;49.500;8.654;2024-03-02T01:01:22;99237.66;;;12.53;49.27
76378;BME280;65200;49.500;8.654;2024-03-02T01:03:50;99230.53;;;12.47;49.89
76378;BME280;65200;49.500;8.654;2024-03-02T01:06:19;99236.47;;;12.37;49.72
76378;BME280;65200;49.500;8.654;2024-03-02T01:08:48;99230.28;;;12.37;50.07
76378;BME280;65200;49.500;8.654;2024-03-02T01:11:19;99236.69;;;12.06;49.83
76378;BME280;65200;49.500;8.654;2024-03-02T01:13:48;99247.69;;;12.16;49.77
76378;BME280;65200;49.500;8.654;2024-03-02T01:16:16;99243.94;;;12.35;48.49
76378;BME280;65200;49.500;8.654;2024-03-02T01:18:44;99254.56;;;12.12;50.36
76378;BME280;65200;49.500;8.654;2024-03-02T01:21:11;99260.81;;;11.95;51.51
76378;BME280;65200;49.500;8.654;2024-03-02T01:23:40;99263.56;;;11.70;52.45
76378;BME280;65200;49.500;8.654;2024-03-02T01:26:08;99258.97;;;11.77;53.44
76378;BME280;65200;49.500;8.654;2024-03-02T01:28:36;99258.06;;;11.23;57.02
76378;BME280;65200;49.500;8.654;2024-03-02T01:31:03;99262.63;;;11.40;55.41
76378;BME280;65200;49.500;8.654;2024-03-02T01:33:31;99254.50;;;11.47;55.06
76378;BME280;65200;49.500;8.654;2024-03-02T01:35:59;99254.94;;;11.44;55.09
76378;BME280;65200;49.500;8.654;2024-03-02T01:38:26;99247.94;;;11.25;55.89
76378;BME280;65200;49.500;8.654;2024-03-02T01:40:56;99252.75;;;11.16;56.26
76378;BME280;65200;49.500;8.654;2024-03-02T01:43:25;99245.41;;;11.30;55.84
76378;BME280;65200;49.500;8.654;2024-03-02T01:45:52;99242.16;;;11.46;55.96
76378;BME280;65200;49.500;8.654;2024-03-02T01:48:20;99239.97;;;11.36;55.23
76378;BME280;65200;49.500;8.654;2024-03-02T01:50:48;99235.28;;;11.32;55.60
76378;BME280;65200;49.500;8.654;2024-03-02T01:53:15;99231.47;;;11.39;55.38
76378;BME280;65200;49.500;8.654;2024-03-02T01:55:43;99222.69;;;11.50;55.32
76378;BME280;65200;49.500;8.654;2024-03-02T01:58:12;99219.06;;;11.45;55.47
76378;BME280;65200;49.500;8.654;2024-03-02T02:00:39;99222.38;;;11.22;56.82
76378;BME280;65200;49.500;8.654;2024-03-02T02:03:07;99220.44;;;11.29;56.22
76378;BME280;65200;49.500;8.654;2024-03-02T02:05:35;99212.94;;;10.95;56.80
76378;BME280;65200;49.500;8.654;2024-03-02T02:08:03;99210.78;;;10.85;56.77
76378;BME280;65200;49.500;8.654;2024-03-02T02:10:31;99209.84;;;10.73;55.22
76378;BME280;65200;49.500;8.654;2024-03-02T02:12:59;99201.59;;;11.36;53.64
76378;BME280;65200;49.500;8.654;2024-03-02T02:15:29;99206.22;;;11.83;52.28
76378;BME280;65200;49.500;8.654;2024-03-02T02:17:58;99201.09;;;12.11;50.34
76378;BME280;65200;49.500;8.654;2024-03-02T02:20:26;99194.00;;;12.28;49.91
76378;BME280;65200;49.500;8.654;2024-03-02T02:22:58;99197.13;;;12.13;50.51
76378;BME280;65200;49.500;8.654;2024-03-02T02:25:26;99194.91;;;12.10;50.27
76378;BME280;65200;49.500;8.654;2024-03-02T02:27:54;99193.59;;;12.01;51.09
76378;BME280;65200;49.500;8.654;2024-03-02T02:30:23;99198.00;;;11.96;52.07
76378;BME280;65200;49.500;8.654;2024-03-02T02:32:51;99203.69;;;11.88;51.28
76378;BME280;65200;49.500;8.654;2024-03-02T02:35:19;99193.94;;;11.75;52.55
76378;BME280;65200;49.500;8.654;2024-03-02T02:37:47;99185.50;;;11.36;53.11
76378;BME280;65200;49.500;8.654;2024-03-02T02:40:17;99194.44;;;11.30;54.23
76378;BME280;65200;49.500;8.654;2024-03-02T02:42:46;99187.31;;;11.24;53.45
76378;BME280;65200;49.500;8.654;2024-03-02T02:45:14;99193.91;;;10.78;55.33
76378;BME280;65200;49.500;8.654;2024-03-02T02:47:42;99188.94;;;10.57;56.52
76378;BME280;65200;49.500;8.654;2024-03-02T02:50:10;99177.59;;;10.62;56.90
76378;BME280;65200;49.500;8.654;2024-03-02T02:52:39;99175.72;;;10.62;56.63
76378;BME280;65200;49.500;8.654;2024-03-02T02:55:08;99177.59;;;10.37;57.45
76378;BME280;65200;49.500;8.654;2024-03-02T02:57:39;99180.44;;;10.42;56.93
76378;BME280;65200;49.500;8.654;2024-03-02T03:00:10;99175.00;;;10.24;58.10
76378;BME280;65200;49.500;8.654;2024-03-02T03:02:41;99176.06;;;10.17;57.97
76378;BME280;65200;49.500;8.654;2024-03-02T03:05:10;99176.97;;;10.04;57.98
76378;BME280;65200;49.500;8.654;2024-03-02T03:07:39;99182.91;;;9.68;59.66
76378;BME280;65200;49.500;8.654;2024-03-02T03:10:07;99180.19;;;10.19;59.32
76378;BME280;65200;49.500;8.654;2024-03-02T03:12:36;99170.59;;;10.61;57.73
76378;BME280;65200;49.500;8.654;2024-03-02T03:15:06;99169.50;;;10.44;58.45
76378;BME280;65200;49.500;8.654;2024-03-02T03:17:35;99174.16;;;10.55;58.37
76378;BME280;65200;49.500;8.654;2024-03-02T03:20:04;99176.38;;;10.58;57.74
76378;BME280;65200;49.500;8.654;2024-03-02T03:22:36;99179.59;;;10.42;58.22
76378;BME280;65200;49.500;8.654;2024-03-02T03:25:05;99173.00;;;10.13;58.66
76378;BME280;65200;49.500;8.654;2024-03-02T03:27:34;99176.53;;;10.38;58.28
76378;BME280;65200;49.500;8.654;2024-03-02T03:30:02;99173.41;;;10.41;58.23
76378;BME280;65200;49.500;8.654;2024-03-02T03:32:33;99170.75;;;10.41;59.04
76378;BME280;65200;49.500;8.654;2024-03-02T03:35:01;99169.44;;;10.26;58.59
76378;BME280;65200;49.500;8.654;2024-03-02T03:37:29;99174.75;;;10.32;59.54
76378;BME280;65200;49.500;8.654;2024-03-02T03:40:00;99170.34;;;10.07;59.34
76378;BME280;65200;49.500;8.654;2024-03-02T03:42:28;99172.00;;;10.39;58.64
76378;BME280;65200;49.500;8.654;2024-03-02T03:44:56;99165.59;;;10.15;59.10
76378;BME280;65200;49.500;8.654;2024-03-02T03:47:23;99167.69;;;10.38;58.60
76378;BME280;65200;49.500;8.654;2024-03-02T03:49:52;99164.16;;;10.13;58.79
76378;BME280;65200;49.500;8.654;2024-03-02T03:52:20;99160.44;;;10.14;59.41
76378;BME280;65200;49.500;8.654;2024-03-02T03:54:48;99164.88;;;9.95;60.67
76378;BME280;65200;49.500;8.654;2024-03-02T03:57:16;99178.97;;;10.15;60.33
76378;BME280;65200;49.500;8.654;2024-03-02T03:59:44;99174.34;;;9.91;61.44
76378;BME280;65200;49.500;8.654;2024-03-02T04:02:12;99167.19;;;9.85;61.31
76378;BME280;65200;49.500;8.654;2024-03-02T04:04:40;99173.53;;;10.28;60.34
76378;BME280;65200;49.500;8.654;2024-03-02T04:07:09;99167.63;;;9.82;61.76
76378;BME280;65200;49.500;8.654;2024-03-02T04:09:36;99167.75;;;9.94;60.58
76378;BME280;65200;49.500;8.654;2024-03-02T04:12:04;99172.34;;;10.24;60.31
76378;BME280;65200;49.500;8.654;2024-03-02T04:14:32;99170.66;;;10.23;60.89
76378;BME280;65200;49.500;8.654;2024-03-02T04:16:59;99177.72;;;10.67;59.05
76378;BME280;65200;49.500;8.654;2024-03-02T04:19:27;99174.75;;;10.57;59.96
76378;BME280;65200;49.500;8.654;2024-03-02T04:21:55;99180.09;;;10.99;58.71
76378;BME280;65200;49.500;8.654;2024-03-02T04:24:26;99175.50;;;11.06;58.39
76378;BME280;65200;49.500;8.654;2024-03-02T04:26:54;99171.94;;;11.13;58.40
76378;BME280;65200;49.500;8.654;2024-03-02T04:29:21;99160.34;;;11.19;58.06
76378;BME280;65200;49.500;8.654;2024-03-02T04:31:49;99161.28;;;11.42;57.41
76378;BME280;65200;49.500;8.654;2024-03-02T04:34:16;99150.72;;;11.65;57.10
76378;BME280;65200;49.500;8.654;2024-03-02T04:36:44;99162.66;;;11.63;57.51
76378;BME280;65200;49.500;8.654;2024-03-02T04:39:11;99160.66;;;11.58;57.12
76378;BME280;65200;49.500;8.654;2024-03-02T04:41:40;99171.50;;;10.97;58.95
76378;BME280;65200;49.500;8.654;2024-03-02T04:44:08;99162.59;;;10.79;59.34
76378;BME280;65200;49.500;8.654;2024-03-02T04:46:35;99165.22;;;10.85;59.39
76378;BME280;65200;49.500;8.654;2024-03-02T04:49:03;99159.94;;;10.97;59.20
76378;BME280;65200;49.500;8.654;2024-03-02T04:51:31;99163.25;;;10.74;58.88
76378;BME280;65200;49.500;8.654;2024-03-02T04:53:58;99166.38;;;10.71;59.19
76378;BME280;65200;49.500;8.654;2024-03-02T04:56:26;99169.41;;;10.57;60.01
76378;BME280;65200;49.500;8.654;2024-03-02T04:59:17;99172.81;;;10.88;58.59
76378;BME280;65200;49.500;8.654;2024-03-02T05:01:45;99175.72;;;10.62;59.23
76378;BME280;65200;49.500;8.654;2024-03-02T05:04:13;99179.63;;;10.66;59.06
76378;BME280;65200;49.500;8.654;2024-03-02T05:06:41;99185.75;;;10.91;58.44
76378;BME280;65200;49.500;8.654;2024-03-02T05:09:09;99183.25;;;10.47;59.27
76378;BME280;65200;49.500;8.654;2024-03-02T05:11:36;99201.16;;;10.53;58.40
76378;BME280;65200;49.500;8.654;2024-03-02T05:14:27;99196.69;;;10.41;58.85
76378;BME280;65200;49.500;8.654;2024-03-02T05:16:55;99205.63;;;10.59;58.66
76378;BME280;65200;49.500;8.654;2024-03-02T05:19:22;99211.94;;;10.71;58.58
76378;BME280;65200;49.500;8.654;2024-03-02T05:21:51;99212.78;;;10.41;59.65
76378;BME280;65200;49.500;8.654;2024-03-02T05:24:19;99214.44;;;10.04;60.23
76378;BME280;65200;49.500;8.654;2024-03-02T05:26:47;99226.19;;;10.34;59.74
76378;BME280;65200;49.500;8.654;2024-03-02T05:29:15;99228.25;;;10.39;59.89
76378;BME280;65200;49.500;8.654;2024-03-02T05:31:46;99234.31;;;10.52;59.46
76378;BME280;65200;49.500;8.654;2024-03-02T05:34:14;99229.00;;;10.46;59.55
76378;BME280;65200;49.500;8.654;2024-03-02T05:36:41;99231.25;;;10.24;60.78
76378;BME280;65200;49.500;8.654;2024-03-02T05:39:09;99232.06;;;10.18;60.66
76378;BME280;65200;49.500;8.654;2024-03-02T05:41:37;99225.38;;;10.40;60.34
76378;BME280;65200;49.500;8.654;2024-03-02T05:44:04;99227.06;;;10.28;60.77
76378;BME280;65200;49.500;8.654;2024-03-02T05:46:32;99222.25;;;10.12;61.86
76378;BME280;65200;49.500;8.654;2024-03-02T05:49:01;99227.47;;;10.32;61.32
76378;BME280;65200;49.500;8.654;2024-03-02T05:51:30;99218.50;;;10.44;60.40
76378;BME280;65200;49.500;8.654;2024-03-02T05:53:57;99225.56;;;10.70;58.86
76378;BME280;65200;49.500;8.654;2024-03-02T05:56:25;99221.81;;;10.71;58.86
76378;BME280;65200;49.500;8.654;2024-03-02T05:58:53;99223.59;;;10.52;59.15
76378;BME280;65200;49.500;8.654;2024-03-02T06:01:33;99220.84;;;10.34;59.65
76378;BME280;65200;49.500;8.654;2024-03-02T06:04:02;99215.50;;;10.34;59.82
76378;BME280;65200;49.500;8.654;2024-03-02T06:06:30;99216.28;;;10.41;59.79
76378;BME280;65200;49.500;8.654;2024-03-02T06:08:59;99213.88;;;10.58;59.21
76378;BME280;65200;49.500;8.654;2024-03-02T06:11:26;99208.81;;;10.74;59.05
76378;BME280;65200;49.500;8.654;2024-03-02T06:13:54;99210.88;;;10.17;59.21
76378;BME280;65200;49.500;8.654;2024-03-02T06:16:22;99207.41;;;10.41;58.87
76378;BME280;65200;49.500;8.654;2024-03-02T06:18:51;99222.44;;;9.66;60.01
76378;BME280;65200;49.500;8.654;2024-03-02T06:21:21;99230.34;;;9.35;62.55
76378;BME280;65200;49.500;8.654;2024-03-02T06:23:49;99233.72;;;8.92;63.32
76378;BME280;65200;49.500;8.654;2024-03-02T06:26:17;99239.66;;;9.20;62.22
76378;BME280;65200;49.500;8.654;2024-03-02T06:28:47;99238.00;;;9.12;63.02
76378;BME280;65200;49.500;8.654;2024-03-02T06:31:15;99241.31;;;8.88;63.56
76378;BME280;65200;49.500;8.654;2024-03-02T06:33:42;99247.69;;;9.13;62.87
76378;BME280;65200;49.500;8.654;2024-03-02T06:36:10;99230.78;;;9.26;63.08
76378;BME280;65200;49.500;8.654;2024-03-02T06:38:39;99235.28;;;9.32;62.56
76378;BME280;65200;49.500;8.654;2024-03-02T06:41:09;99232.25;;;9.79;62.42
76378;BME280;65200;49.500;8.654;2024-03-02T06:43:37;99245.56;;;9.92;60.74
76378;BME280;65200;49.500;8.654;2024-03-02T06:46:05;99251.31;;;9.96;60.24
76378;BME280;65200;49.500;8.654;2024-03-02T06:48:35;99262.66;;;9.91;59.84
76378;BME280;65200;49.500;8.654;2024-03-02T06:51:03;99258.38;;;9.90;60.47
76378;BME280;65200;49.500;8.654;2024-03-02T06:53:31;99258.69;;;9.56;61.05
76378;BME280;65200;49.500;8.654;2024-03-02T06:56:01;99258.84;;;9.74;61.63
76378;BME280;65200;49.500;8.654;2024-03-02T06:58:29;99256.56;;;9.71;63.08
76378;BME280;65200;49.500;8.654;2024-03-02T07:00:56;99253.94;;;9.58;63.91
76378;BME280;65200;49.500;8.654;2024-03-02T07:03:24;99253.53;;;9.67;63.89
76378;BME280;65200;49.500;8.654;2024-03-02T07:05:52;99251.59;;;9.81;62.87
76378;BME280;65200;49.500;8.654;2024-03-02T07:08:19;99249.19;;;10.17;61.99
76378;BME280;65200;49.500;8.654;2024-03-02T07:10:47;99251.47;;;10.07;62.79
76378;BME280;65200;49.500;8.654;2024-03-02T07:13:16;99255.22;;;10.44;60.91
76378;BME280;65200;49.500;8.654;2024-03-02T07:15:44;99257.50;;;10.40;60.73
76378;BME280;65200;49.500;8.654;2024-03-02T07:18:26;99256.44;;;10.10;62.01
76378;BME280;65200;49.500;8.654;2024-03-02T07:20:53;99255.16;;;10.50;61.13
76378;BME280;65200;49.500;8.654;2024-03-02T07:23:22;99271.50;;;10.42;60.52
76378;BME280;65200;49.500;8.654;2024-03-02T07:25:53;99263.53;;;10.60;60.10
76378;BME280;65200;49.500;8.654;2024-03-02T07:28:27;99254.56;;;10.11;62.07
76378;BME280;65200;49.500;8.654;2024-03-02T07:30:58;99255.50;;;10.60;60.65
76378;BME280;65200;49.500;8.654;2024-03-02T07:33:26;99265.00;;;10.25;60.78
76378;BME280;65200;49.500;8.654;2024-03-02T07:35:54;99271.38;;;9.73;61.94
76378;BME280;65200;49.500;8.654;2024-03-02T07:38:22;99270.41;;;10.06;60.63
76378;BME280;65200;49.500;8.654;2024-03-02T07:40:50;99267.84;;;9.80;61.67
76378;BME280;65200;49.500;8.654;2024-03-02T07:43:18;99275.56;;;10.14;60.93
76378;BME280;65200;49.500;8.654;2024-03-02T07:45:47;99273.69;;;10.21;61.80
76378;BME280;65200;49.500;8.654;2024-03-02T07:48:15;99270.84;;;10.09;62.24
76378;BME280;65200;49.500;8.654;2024-03-02T07:50:43;99283.88;;;10.37;61.68
76378;BME280;65200;49.500;8.654;2024-03-02T07:53:11;99283.13;;;10.85;60.24
76378;BME280;65200;49.500;8.654;2024-03-02T07:55:39;99278.09;;;11.20;59.09
76378;BME280;65200;49.500;8.654;2024-03-02T07:58:06;99289.91;;;11.37;59.87
76378;BME280;65200;49.500;8.654;2024-03-02T08:00:38;99291.47;;;11.63;59.64
76378;BME280;65200;49.500;8.654;2024-03-02T08:03:07;99290.63;;;11.69;59.95
76378;BME280;65200;49.500;8.654;2024-03-02T08:05:37;99289.53;;;11.52;60.66
76378;BME280;65200;49.500;8.654;2024-03-02T08:08:06;99293.97;;;11.82;60.65
76378;BME280;65200;49.500;8.654;2024-03-02T08:10:33;99289.06;;;11.97;58.69
76378;BME280;65200;49.500;8.654;2024-03-02T08:13:01;99283.75;;;12.09;59.08
76378;BME280;65200;49.500;8.654;2024-03-02T08:15:28;99294.50;;;12.09;59.72
76378;BME280;65200;49.500;8.654;2024-03-02T08:17:56;99287.47;;;12.26;58.94
76378;BME280;65200;49.500;8.654;2024-03-02T08:20:25;99294.00;;;12.30;57.55
76378;BME280;65200;49.500;8.654;2024-03-02T08:22:53;99294.00;;;12.30;58.57
76378;BME280;65200;49.500;8.654;2024-03-02T08:25:21;99299.19;;;12.73;57.28
76378;BME280;65200;49.500;8.654;2024-03-02T08:27:49;99298.97;;;12.74;57.69
76378;BME280;65200;49.500;8.654;2024-03-02T08:30:17;99300.09;;;13.08;57.34
76378;BME280;65200;49.500;8.654;2024-03-02T08:32:45;99298.50;;;13.18;55.86
76378;BME280;65200;49.500;8.654;2024-03-02T08:35:13;99300.13;;;13.54;56.73
76378;BME280;65200;49.500;8.654;2024-03-02T08:37:43;99298.28;;;13.54;55.72
76378;BME280;65200;49.500;8.654;2024-03-02T08:40:11;99301.25;;;13.93;56.47
76378;BME280;65200;49.500;8.654;2024-03-02T08:42:44;99298.66;;;13.98;56.54
76378;BME280;65200;49.500;8.654;2024-03-02T08:45:12;99299.66;;;13.80;55.92
76378;BME280;65200;49.500;8.654;2024-03-02T08:47:40;99292.72;;;13.84;56.95
76378;BME280;65200;49.500;8.654;2024-03-02T08:50:08;99292.38;;;14.32;56.33
76378;BME280;65200;49.500;8.654;2024-03-02T08:52:36;99286.84;;;14.38;54.33
76378;BME280;65200;49.500;8.654;2024-03-02T08:55:05;99280.22;;;14.74;54.17
76378;BME280;65200;49.500;8.654;2024-03-02T08:57:33;99290.44;;;14.72;55.16
76378;BME280;65200;49.500;8.654;2024-03-02T09:00:01;99289.34;;;14.84;52.84
76378;BME280;65200;49.500;8.654;2024-03-02T09:02:29;99285.75;;;15.12;51.78
76378;BME280;65200;49.500;8.654;2024-03-02T09:04:57;99286.31;;;15.14;52.04
76378;BME280;65200;49.500;8.654;2024-03-02T09:07:25;99289.66;;;15.21;52.19
76378;BME280;65200;49.500;8.654;2024-03-02T09:09:52;99280.91;;;15.14;52.67
76378;BME280;65200;49.500;8.654;2024-03-02T09:12:21;99278.88;;;15.54;51.04
76378;BME280;65200;49.500;8.654;2024-03-02T09:14:49;99277.78;;;15.55;50.05
76378;BME280;65200;49.500;8.654;2024-03-02T09:17:17;99273.31;;;15.44;50.01
76378;BME280;65200;49.500;8.654;2024-03-02T09:19:44;99270.25;;;15.57;50.98
76378;BME280;65200;49.500;8.654;2024-03-02T09:22:12;99271.34;;;15.56;52.01
76378;BME280;65200;49.500;8.654;2024-03-02T09:24:40;99271.03;;;15.53;49.49
76378;BME280;65200;49.500;8.654;2024-03-02T09:27:08;99271.28;;;15.73;49.64
76378;BME280;65200;49.500;8.654;2024-03-02T09:29:37;99265.28;;;15.49;52.84
76378;BME280;65200;49.500;8.654;2024-03-02T09:32:07;99271.53;;;15.50;51.11
76378;BME280;65200;49.500;8.654;2024-03-02T09:34:34;99275.50;;;15.47;51.97
76378;BME280;65200;49.500;8.654;2024-03-02T09:37:02;99278.19;;;15.64;52.06
76378;BME280;65200;49.500;8.654;2024-03-02T09:39:30;99278.72;;;16.04;50.08
76378;BME280;65200;49.500;8.654;2024-03-02T09:41:59;99278.91;;;15.97;51.00
76378;BME280;65200;49.500;8.654;2024-03-02T09:44:26;99279.16;;;16.17;49.08
76378;BME280;65200;49.500;8.654;2024-03-02T09:46:55;99272.97;;;16.43;48.84
76378;BME280;65200;49.500;8.654;2024-03-02T09:49:23;99275.53;;;16.82;48.35
76378;BME280;65200;49.500;8.654;2024-03-02T09:51:51;99270.63;;;17.05;46.34
76378;BME280;65200;49.500;8.654;2024-03-02T09:54:18;99268.06;;;16.94;48.18
76378;BME280;65200;49.500;8.654;2024-03-02T09:56:49;99263.09;;;17.17;45.55
76378;BME280;65200;49.500;8.654;2024-03-02T09:59:18;99265.97;;;17.01;46.68
76378;BME280;65200;49.500;8.654;2024-03-02T10:01:58;99268.38;;;16.97;45.70
76378;BME280;65200;49.500;8.654;2024-03-02T10:04:27;99271.56;;;17.26;45.71
76378;BME280;65200;49.500;8.654;2024-03-02T10:07:10;99265.06;;;17.22;45.63
76378;BME280;65200;49.500;8.654;2024-03-02T10:09:37;99260.72;;;16.89;45.95
76378;BME280;65200;49.500;8.654;2024-03-02T10:12:06;99254.31;;;17.32;45.91
76378;BME280;65200;49.500;8.654;2024-03-02T10:14:34;99256.59;;;17.50;46.95
76378;BME280;65200;49.500;8.654;2024-03-02T10:17:05;99256.91;;;17.17;47.84
76378;BME280;65200;49.500;8.654;2024-03-02T10:19:36;99251.84;;;17.67;44.87
76378;BME280;65200;49.500;8.654;2024-03-02T10:22:07;99247.22;;;17.62;44.79
76378;BME280;65200;49.500;8.654;2024-03-02T10:24:36;99243.53;;;17.84;43.79
76378;BME280;65200;49.500;8.654;2024-03-02T10:27:09;99236.44;;;17.83;45.21
76378;BME280;65200;49.500;8.654;2024-03-02T10:29:38;99232.38;;;17.80;44.47
76378;BME280;65200;49.500;8.654;2024-03-02T10:32:10;99229.56;;;18.27;42.44
76378;BME280;65200;49.500;8.654;2024-03-02T10:34:40;99222.38;;;17.91;43.20
76378;BME280;65200;49.500;8.654;2024-03-02T10:37:08;99227.84;;;18.01;44.06
76378;BME280;65200;49.500;8.654;2024-03-02T10:39:37;99231.31;;;17.86;44.75
76378;BME280;65200;49.500;8.654;2024-03-02T10:42:07;99222.06;;;17.35;45.83
76378;BME280;65200;49.500;8.654;2024-03-02T10:44:35;99224.47;;;17.27;45.23
76378;BME280;65200;49.500;8.654;2024-03-02T10:47:04;99226.41;;;17.31;44.35
76378;BME280;65200;49.500;8.654;2024-03-02T10:49:33;99239.16;;;16.99;47.18
76378;BME280;65200;49.500;8.654;2024-03-02T10:52:01;99232.00;;;17.20;48.13
76378;BME280;65200;49.500;8.654;2024-03-02T10:54:29;99231.81;;;17.73;47.68
76378;BME280;65200;49.500;8.654;2024-03-02T10:57:04;99230.88;;;17.11;46.01
76378;BME280;65200;49.500;8.654;2024-03-02T10:59:35;99224.19;;;17.23;46.87
76378;BME280;65200;49.500;8.654;2024-03-02T11:02:06;99217.81;;;17.96;45.85
76378;BME280;65200;49.500;8.654;2024-03-02T11:04:37;99212.50;;;18.36;45.39
76378;BME280;65200;49.500;8.654;2024-03-02T11:07:07;99206.97;;;17.96;45.16
76378;BME280;65200;49.500;8.654;2024-03-02T11:09:40;99210.94;;;18.55;45.10
76378;BME280;65200;49.500;8.654;2024-03-02T11:12:12;99205.00;;;18.63;45.70
76378;BME280;65200;49.500;8.654;2024-03-02T11:14:41;99207.38;;;19.40;44.12
76378;BME280;65200;49.500;8.654;2024-03-02T11:17:11;99200.59;;;19.17;41.35
76378;BME280;65200;49.500;8.654;2024-03-02T11:19:44;99210.66;;;19.32;39.38
76378;BME280;65200;49.500;8.654;2024-03-02T11:22:12;99204.97;;;18.93;39.64
76378;BME280;65200;49.500;8.654;2024-03-02T11:24:49;99198.44;;;18.44;40.00
76378;BME280;65200;49.500;8.654;2024-03-02T11:30:49;99182.97;;;19.20;39.53
76378;BME280;65200;49.500;8.654;2024-03-02T11:33:26;99179.44;;;18.99;40.06
76378;BME280;65200;49.500;8.654;2024-03-02T11:36:00;99176.13;;;19.53;38.51
76378;BME280;65200;49.500;8.654;2024-03-02T11:38:30;99171.59;;;18.88;38.16
76378;BME280;65200;49.500;8.654;2024-03-02T11:40:59;99160.97;;;19.17;38.45
76378;BME280;65200;49.500;8.654;2024-03-02T11:43:28;99165.63;;;18.41;38.91
76378;BME280;65200;49.500;8.654;2024-03-02T11:45:59;99161.00;;;18.91;39.28
76378;BME280;65200;49.500;8.654;2024-03-02T11:48:30;99153.09;;;19.30;38.14
76378;BME280;65200;49.500;8.654;2024-03-02T11:51:00;99148.94;;;19.53;36.42
76378;BME280;65200;49.500;8.654;2024-03-02T11:53:28;99152.84;;;18.96;35.33
76378;BME280;65200;49.500;8.654;2024-03-02T11:55:59;99145.78;;;18.90;34.15
76378;BME280;65200;49.500;8.654;2024-03-02T11:58:28;99153.13;;;19.00;34.44
76378;BME280;65200;49.500;8.654;2024-03-02T12:00:55;99144.72;;;18.76;36.03
76378;BME280;65200;49.500;8.654;2024-03-02T12:03:25;99142.00;;;18.51;34.48
76378;BME280;65200;49.500;8.654;2024-03-02T12:05:53;99132.25;;;18.50;34.58
76378;BME280;65200;49.500;8.654;2024-03-02T12:08:23;99134.44;;;18.63;35.17
76378;BME280;65200;49.500;8.654;2024-03-02T12:10:58;99122.09;;;19.31;34.16
76378;BME280;65200;49.500;8.654;2024-03-02T12:13:29;99122.91;;;19.42;34.04
76378;BME280;65200;49.500;8.654;2024-03-02T12:15:56;99121.13;;;19.71;34.41
76378;BME280;65200;49.500;8.654;2024-03-02T12:18:24;99122.25;;;19.65;34.86
76378;BME280;65200;49.500;8.654;2024-03-02T12:20:53;99114.97;;;19.99;34.54
76378;BME280;65200;49.500;8.654;2024-03-02T12:23:25;99109.53;;;19.45;35.04
76378;BME280;65200;49.500;8.654;2024-03-02T12:25:53;99111.44;;;19.50;35.15
76378;BME280;65200;49.500;8.654;2024-03-02T12:28:20;99107.38;;;19.42;36.16
76378;BME280;65200;49.500;8.654;2024-03-02T12:30:48;99107.38;;;19.96;37.71
76378;BME280;65200;49.500;8.654;2024-03-02T12:33:17;99109.44;;;19.70;35.73
76378;BME280;65200;49.500;8.654;2024-03-02T12:35:45;99108.31;;;20.25;35.80
76378;BME280;65200;49.500;8.654;2024-03-02T12:38:14;99098.50;;;19.85;36.79
76378;BME280;65200;49.500;8.654;2024-03-02T12:40:43;99111.78;;;19.92;36.19
76378;BME280;65200;49.500;8.654;2024-03-02T12:43:11;99098.25;;;19.82;35.61
76378;BME280;65200;49.500;8.654;2024-03-02T12:45:38;99098.03;;;20.17;36.38
76378;BME280;65200;49.500;8.654;2024-03-02T12:48:06;99093.56;;;20.36;35.14
76378;BME280;65200;49.500;8.654;2024-03-02T12:50:34;99094.66;;;20.30;35.55
76378;BME280;65200;49.500;8.654;2024-03-02T12:53:02;99083.84;;;20.20;35.79
76378;BME280;65200;49.500;8.654;2024-03-02T12:55:29;99083.31;;;20.23;35.24
76378;BME280;65200;49.500;8.654;2024-03-02T12:58:00;99077.66;;;21.05;34.74
76378;BME280;65200;49.500;8.654;2024-03-02T13:00:29;99086.38;;;19.68;36.46
76378;BME280;65200;49.500;8.654;2024-03-02T13:03:01;99079.03;;;19.63;35.78
76378;BME280;65200;49.500;8.654;2024-03-02T13:05:30;99073.31;;;20.76;38.30
76378;BME280;65200;49.500;8.654;2024-03-02T13:07:58;99077.91;;;20.52;34.15
76378;BME280;65200;49.500;8.654;2024-03-02T13:10:27;99075.63;;;20.30;34.88
76378;BME280;65200;49.500;8.654;2024-03-02T13:12:55;99074.47;;;20.98;34.31